Terminal Aerodrome Forecast
Issued by NWS Tuscon, AZ

Home | Current Version | Previous Version | Text Only | Print | Product List | Glossary On
Versions: 1 2 3 4 5 6 7 8 9 10 11 12 13 14
223
FTUS45 KTWC 281347 AAA
TAFDUG
TAF AMD
KDUG 281347Z 2814/0112 22010KT P6SM FEW110 OVC200
     FM281700 23022G34KT P6SM FEW050 SCT100 BKN200
     FM010100 29017G26KT P6SM FEW100 SCT150
     FM010400 33006KT P6SM FEW100=

USA.gov is the U.S. government's official web portal to all federal, state and local government web resources and services.